Time;durP1;ratioP1;P1;durP2;ratioP2;P2;SDS_P1;SDS_P2;PMS_P1;PMS_P2;Temp;Humidity;BMP_temperature;BMP_pressure;BME280_temperature;BME280_humidity;BME280_pressure;Samples;Min_cycle;Max_cycle;Signal;HPM_P1;HPM_P2
2022/12/05 00:02:55;;;;;;;15.35;5.95;;;;;;;;;;10511105;28;20476;-75
2022/12/05 00:08:02;;;;;;;18.63;6.43;;;;;;;;;;10502745;28;20036;-74
2022/12/05 00:13:05;;;;;;;;;;;;;;;;;;10507953;28;20412;-74
2022/12/05 00:18:09;;;;;;;22.58;6.50;;;;;;;;;;10515651;28;19935;-75
2022/12/05 00:23:13;;;;;;;16.60;6.55;;;;;;;;;;10503578;28;20036;-74
2022/12/05 00:28:16;;;;;;;20.10;6.88;;;;;;;;;;10513286;28;20393;-75
2022/12/05 00:33:20;;;;;;;15.82;5.32;;;;;;;;;;10500449;28;20048;-75
2022/12/05 00:38:22;;;;;;;16.10;5.60;;;;;;;;;;10516156;28;20077;-75
2022/12/05 00:43:26;;;;;;;12.05;5.20;;;;;;;;;;10481710;28;20105;-75
2022/12/05 00:48:30;;;;;;;19.13;6.47;;;;;;;;;;10516379;28;20056;-75
2022/12/05 00:53:34;;;;;;;15.73;5.55;;;;;;;;;;10523389;28;20078;-75
2022/12/05 00:58:38;;;;;;;21.75;6.68;;;;;;;;;;10512299;28;20040;-76
2022/12/05 01:03:44;;;;;;;12.05;4.47;;;;;;;;;;10488325;28;20040;-76
2022/12/05 01:08:47;;;;;;;17.20;5.85;;;;;;;;;;10519856;28;20039;-75
2022/12/05 01:13:50;;;;;;;17.80;6.25;;;;;;;;;;10495061;28;20045;-75
2022/12/05 01:18:55;;;;;;;19.10;7.17;;;;;;;;;;10491074;28;20100;-75
2022/12/05 01:23:59;;;;;;;19.88;6.88;;;;;;;;;;10482703;28;20454;-76
2022/12/05 01:29:07;;;;;;;19.83;7.32;;;;;;;;;;10508338;28;20139;-76
2022/12/05 01:34:13;;;;;;;19.10;5.53;;;;;;;;;;10516243;28;20036;-76
2022/12/05 01:39:16;;;;;;;21.98;7.43;;;;;;;;;;10516086;28;20032;-76
2022/12/05 01:44:39;;;;;;;17.90;6.90;;;;;;;;;;10505182;28;20048;-76
2022/12/05 01:49:43;;;;;;;17.65;6.22;;;;;;;;;;10501713;28;20033;-74
2022/12/05 01:54:47;;;;;;;20.10;7.38;;;;;;;;;;10506251;28;20039;-75
2022/12/05 02:00:03;;;;;;;20.60;6.40;;;;;;;;;;10486132;28;20032;-76
2022/12/05 02:05:09;;;;;;;17.58;5.95;;;;;;;;;;10507970;28;20044;-74
2022/12/05 02:10:12;;;;;;;21.83;6.90;;;;;;;;;;10515792;28;20037;-75
2022/12/05 02:15:22;;;;;;;20.98;8.25;;;;;;;;;;10513013;28;20106;-74
2022/12/05 02:20:33;;;;;;;14.35;5.95;;;;;;;;;;10523729;28;20056;-76
2022/12/05 02:25:50;;;;;;;19.65;6.93;;;;;;;;;;10513455;28;20056;-76
2022/12/05 02:30:58;;;;;;;18.63;6.68;;;;;;;;;;10499713;28;20047;-75
2022/12/05 02:36:04;;;;;;;15.02;4.97;;;;;;;;;;10523653;28;20044;-75
2022/12/05 02:41:12;;;;;;;10.50;4.00;;;;;;;;;;10505356;28;20505;-74
2022/12/05 02:46:26;;;;;;;23.80;7.70;;;;;;;;;;10504012;28;20071;-75
2022/12/05 02:51:31;;;;;;;12.68;4.40;;;;;;;;;;10524956;28;20051;-76
2022/12/05 02:56:35;;;;;;;9.15;3.33;;;;;;;;;;10504704;28;20164;-75
2022/12/05 03:01:45;;;;;;;16.27;5.22;;;;;;;;;;10500744;28;20421;-75
2022/12/05 03:06:52;;;;;;;22.00;7.32;;;;;;;;;;10519255;28;20040;-75
2022/12/05 03:11:59;;;;;;;20.27;7.47;;;;;;;;;;10492038;28;20408;-75
2022/12/05 03:17:06;;;;;;;21.15;7.32;;;;;;;;;;10495395;28;20047;-75
2022/12/05 03:22:10;;;;;;;23.98;6.60;;;;;;;;;;10500437;28;20349;-76
2022/12/05 03:27:16;;;;;;;19.20;6.93;;;;;;;;;;10510213;28;20036;-76
2022/12/05 03:32:22;;;;;;;23.47;6.80;;;;;;;;;;10488960;28;20052;-75
2022/12/05 03:37:30;;;;;;;18.67;6.38;;;;;;;;;;10507948;28;20498;-75
2022/12/05 03:42:37;;;;;;;19.33;6.80;;;;;;;;;;10494883;28;20036;-77
2022/12/05 03:47:44;;;;;;;20.73;6.47;;;;;;;;;;10501941;28;20418;-74
2022/12/05 03:52:49;;;;;;;15.60;5.90;;;;;;;;;;10515999;28;20058;-75
2022/12/05 03:58:15;;;;;;;14.50;5.90;;;;;;;;;;10525235;28;20052;-74
2022/12/05 04:03:21;;;;;;;19.35;7.05;;;;;;;;;;10516506;28;20041;-75
2022/12/05 04:08:27;;;;;;;11.90;5.20;;;;;;;;;;10488332;28;20547;-76
2022/12/05 04:13:33;;;;;;;8.30;3.27;;;;;;;;;;10493386;28;20056;-77
2022/12/05 04:18:40;;;;;;;12.40;4.03;;;;;;;;;;10512650;28;20432;-76
2022/12/05 04:25:31;;;;;;;19.67;6.87;;;;;;;;;;10511876;28;20078;-76
2022/12/05 04:29:17;;;;;;;14.07;5.07;;;;;;;;;;10513744;28;20119;-77
2022/12/05 04:34:21;;;;;;;9.50;4.13;;;;;;;;;;10507471;28;20044;-75
2022/12/05 04:39:27;;;;;;;12.95;4.28;;;;;;;;;;10520156;28;20047;-74
2022/12/05 04:44:32;;;;;;;11.03;4.23;;;;;;;;;;10495999;28;20060;-76
2022/12/05 04:49:38;;;;;;;9.60;3.65;;;;;;;;;;10496324;28;20056;-76
2022/12/05 04:54:43;;;;;;;19.13;5.95;;;;;;;;;;10497380;28;20093;-76
2022/12/05 04:59:46;;;;;;;18.58;6.13;;;;;;;;;;10495268;28;20047;-76
2022/12/05 05:04:53;;;;;;;22.17;6.80;;;;;;;;;;10492591;28;20186;-75
2022/12/05 05:09:59;;;;;;;21.23;6.82;;;;;;;;;;10500409;28;20036;-75
2022/12/05 05:15:02;;;;;;;19.23;5.75;;;;;;;;;;10511247;28;20123;-76
2022/12/05 05:25:25;;;;;;;18.45;6.47;;;;;;;;;;10509264;28;20032;-75
2022/12/05 05:30:29;;;;;;;19.73;6.07;;;;;;;;;;10493649;28;20317;-76
2022/12/05 05:35:40;;;;;;;19.77;6.85;;;;;;;;;;10496346;28;20052;-76
2022/12/05 05:40:43;;;;;;;20.45;6.13;;;;;;;;;;10503676;28;20497;-76
2022/12/05 05:45:45;;;;;;;21.73;6.32;;;;;;;;;;10523647;28;20036;-75
2022/12/05 05:50:59;;;;;;;19.77;6.80;;;;;;;;;;10509340;28;20041;-76
2022/12/05 05:56:02;;;;;;;26.23;8.25;;;;;;;;;;10533210;28;20383;-74
2022/12/05 06:01:05;;;;;;;24.63;7.83;;;;;;;;;;10513402;28;20043;-74
2022/12/05 06:06:11;;;;;;;4.43;2.10;;;;;;;;;;10520441;28;20048;-75
2022/12/05 06:11:15;;;;;;;24.05;7.03;;;;;;;;;;10498976;28;20044;-78
2022/12/05 06:16:26;;;;;;;22.35;7.80;;;;;;;;;;10519596;28;20040;-77
2022/12/05 06:21:31;;;;;;;26.23;7.97;;;;;;;;;;10527151;28;20641;-75
2022/12/05 06:26:34;;;;;;;8.40;2.72;;;;;;;;;;10523840;28;20048;-75
2022/12/05 06:31:37;;;;;;;18.70;6.38;;;;;;;;;;10522711;28;20039;-75
2022/12/05 06:36:42;;;;;;;17.08;5.35;;;;;;;;;;10520475;28;20131;-75
2022/12/05 06:41:45;;;;;;;21.38;6.20;;;;;;;;;;10524755;28;20035;-75
2022/12/05 06:46:49;;;;;;;18.73;5.68;;;;;;;;;;10518405;28;20071;-75
2022/12/05 06:51:54;;;;;;;26.13;7.50;;;;;;;;;;10520286;28;20055;-74
2022/12/05 06:56:57;;;;;;;16.23;6.40;;;;;;;;;;10504375;28;20036;-75
2022/12/05 07:01:59;;;;;;;4.35;2.92;;;;;;;;;;10518299;28;20048;-76
2022/12/05 07:07:05;;;;;;;19.83;5.78;;;;;;;;;;10522383;28;20043;-74
2022/12/05 07:12:10;;;;;;;21.73;7.05;;;;;;;;;;10519577;28;20267;-74
2022/12/05 07:17:13;;;;;;;25.58;7.13;;;;;;;;;;10517017;28;20127;-76
2022/12/05 07:22:18;;;;;;;23.25;7.18;;;;;;;;;;10496529;28;20097;-75
2022/12/05 07:27:22;;;;;;;17.92;6.68;;;;;;;;;;10519508;28;20436;-76
2022/12/05 07:32:31;;;;;;;23.30;7.40;;;;;;;;;;10504204;28;20097;-75
2022/12/05 07:37:38;;;;;;;18.75;7.80;;;;;;;;;;10516572;28;20028;-74
2022/12/05 07:42:41;;;;;;;21.90;7.13;;;;;;;;;;10520879;28;20139;-75
2022/12/05 07:47:44;;;;;;;19.05;6.22;;;;;;;;;;10519786;28;20036;-76
2022/12/05 07:52:48;;;;;;;18.60;6.10;;;;;;;;;;10494323;28;20048;-75
2022/12/05 07:57:51;;;;;;;;;;;;;;;;;;10520505;28;20040;-76
2022/12/05 08:02:53;;;;;;;19.15;6.35;;;;;;;;;;10522011;28;20409;-75
2022/12/05 08:07:58;;;;;;;17.05;5.18;;;;;;;;;;10522953;28;20036;-74
2022/12/05 08:13:01;;;;;;;24.52;7.28;;;;;;;;;;10521108;28;20123;-74
2022/12/05 08:18:03;;;;;;;19.60;7.03;;;;;;;;;;10493947;28;20206;-75
2022/12/05 08:23:07;;;;;;;14.25;4.90;;;;;;;;;;10498781;28;20036;-74
2022/12/05 08:28:10;;;;;;;18.27;6.38;;;;;;;;;;10508307;28;20462;-74
2022/12/05 08:33:14;;;;;;;15.57;6.28;;;;;;;;;;10516067;28;20054;-76
2022/12/05 08:38:20;;;;;;;12.82;5.18;;;;;;;;;;10512935;28;20036;-76
2022/12/05 08:43:23;;;;;;;18.52;6.72;;;;;;;;;;10500032;28;20047;-75
2022/12/05 08:48:30;;;;;;;20.52;6.88;;;;;;;;;;10495805;28;20130;-76
2022/12/05 08:53:34;;;;;;;17.37;6.13;;;;;;;;;;10512790;28;20059;-74
2022/12/05 08:58:44;;;;;;;20.67;6.57;;;;;;;;;;10513980;28;20301;-75
2022/12/05 09:03:47;;;;;;;16.48;5.80;;;;;;;;;;10502678;28;20032;-74
2022/12/05 09:08:53;;;;;;;20.15;7.15;;;;;;;;;;10499537;28;20039;-75
2022/12/05 09:13:58;;;;;;;16.73;6.18;;;;;;;;;;10519006;28;20036;-75
2022/12/05 09:19:02;;;;;;;20.58;7.32;;;;;;;;;;10515746;28;20050;-74
2022/12/05 09:24:10;;;;;;;17.77;6.75;;;;;;;;;;10511113;28;20044;-74
2022/12/05 09:29:14;;;;;;;12.10;4.68;;;;;;;;;;10508433;28;20508;-75
2022/12/05 09:34:21;;;;;;;18.63;5.70;;;;;;;;;;10502309;28;20520;-77
2022/12/05 09:39:25;;;;;;;21.00;7.32;;;;;;;;;;10509787;28;20040;-77
2022/12/05 09:44:35;;;;;;;18.65;6.53;;;;;;;;;;10507834;28;20134;-76
2022/12/05 09:49:41;;;;;;;20.25;7.03;;;;;;;;;;10489884;28;20041;-76
2022/12/05 09:54:46;;;;;;;19.38;6.97;;;;;;;;;;10512631;28;20040;-76
2022/12/05 09:59:50;;;;;;;19.00;7.43;;;;;;;;;;10514726;28;20511;-76
2022/12/05 10:04:57;;;;;;;19.23;7.55;;;;;;;;;;10507469;28;20044;-75
2022/12/05 10:10:12;;;;;;;17.25;6.80;;;;;;;;;;10483405;28;20449;-75
2022/12/05 10:15:30;;;;;;;19.83;6.30;;;;;;;;;;10510439;28;20036;-75
2022/12/05 10:20:36;;;;;;;18.60;7.22;;;;;;;;;;10488019;28;20032;-76
2022/12/05 10:25:41;;;;;;;17.55;6.25;;;;;;;;;;10504110;28;20048;-75
2022/12/05 10:30:46;;;;;;;18.13;6.65;;;;;;;;;;10509691;28;20037;-76
2022/12/05 10:35:53;;;;;;;14.75;5.78;;;;;;;;;;10499632;28;20032;-75
2022/12/05 10:40:59;;;;;;;9.95;4.63;;;;;;;;;;10518212;28;20032;-75
2022/12/05 10:46:02;;;;;;;18.23;6.65;;;;;;;;;;10512993;28;20036;-75
2022/12/05 10:51:05;;;;;;;21.60;6.87;;;;;;;;;;10507353;28;20051;-75
2022/12/05 10:56:27;;;;;;;23.00;7.07;;;;;;;;;;10493952;28;20039;-75
2022/12/05 11:01:35;;;;;;;16.15;6.50;;;;;;;;;;10519703;28;20123;-76
2022/12/05 11:06:38;;;;;;;17.80;6.70;;;;;;;;;;10516695;28;20067;-76
2022/12/05 11:11:42;;;;;;;17.52;6.65;;;;;;;;;;10519075;28;20287;-75
2022/12/05 11:16:52;;;;;;;13.18;5.20;;;;;;;;;;10495972;28;20060;-78
2022/12/05 11:21:56;;;;;;;13.15;4.55;;;;;;;;;;10514403;28;20127;-76
2022/12/05 11:27:00;;;;;;;13.38;6.05;;;;;;;;;;10498643;28;20040;-75
2022/12/05 11:32:18;;;;;;;13.90;5.78;;;;;;;;;;10514315;28;20028;-75
2022/12/05 11:37:24;;;;;;;6.93;2.72;;;;;;;;;;10512677;28;20051;-75
2022/12/05 11:42:33;;;;;;;8.80;3.72;;;;;;;;;;10529310;28;20039;-75
2022/12/05 11:47:49;;;;;;;12.25;5.68;;;;;;;;;;10517398;28;20031;-75
2022/12/05 11:52:57;;;;;;;9.20;2.83;;;;;;;;;;10499640;28;20102;-76
2022/12/05 11:58:15;;;;;;;7.05;3.03;;;;;;;;;;10516344;28;20043;-76
2022/12/05 12:03:33;;;;;;;13.82;5.50;;;;;;;;;;10503873;28;20028;-75
2022/12/05 12:08:44;;;;;;;11.93;5.28;;;;;;;;;;10499713;28;20052;-75
2022/12/05 12:13:52;;;;;;;13.07;5.07;;;;;;;;;;10493993;28;20096;-75
2022/12/05 12:19:14;;;;;;;13.25;5.47;;;;;;;;;;10500854;28;20184;-75
2022/12/05 12:24:24;;;;;;;11.27;5.10;;;;;;;;;;10501904;28;20127;-75
2022/12/05 12:29:34;;;;;;;6.70;2.03;;;;;;;;;;10514306;28;20036;-75
2022/12/05 12:34:51;;;;;;;8.07;3.30;;;;;;;;;;10498974;28;20374;-75
2022/12/05 12:40:00;;;;;;;11.75;4.70;;;;;;;;;;10492101;28;20032;-75
2022/12/05 12:45:13;;;;;;;5.43;2.72;;;;;;;;;;10516634;28;20064;-76
2022/12/05 12:50:19;;;;;;;6.47;3.13;;;;;;;;;;10514370;28;20040;-77
2022/12/05 12:55:30;;;;;;;11.90;4.47;;;;;;;;;;10518518;28;20129;-77
2022/12/05 13:00:37;;;;;;;7.05;2.53;;;;;;;;;;10512019;28;20036;-76
2022/12/05 13:05:45;;;;;;;11.02;4.57;;;;;;;;;;10514625;28;20556;-75
2022/12/05 13:10:50;;;;;;;8.23;3.63;;;;;;;;;;10493423;28;20035;-77
2022/12/05 13:15:55;;;;;;;6.20;2.85;;;;;;;;;;10515302;28;20454;-76
2022/12/05 13:21:01;;;;;;;4.78;2.38;;;;;;;;;;10500800;28;20070;-75
2022/12/05 13:26:10;;;;;;;6.75;3.00;;;;;;;;;;10500717;28;20044;-74
2022/12/05 13:31:16;;;;;;;5.93;3.17;;;;;;;;;;10486192;28;20116;-75
2022/12/05 13:47:06;;;;;;;3.03;1.25;;;;;;;;;;10511246;28;20507;-75
2022/12/05 13:52:11;;;;;;;7.13;3.15;;;;;;;;;;10493204;28;20060;-76
2022/12/05 13:57:33;;;;;;;4.13;1.92;;;;;;;;;;10505149;28;20071;-75
2022/12/05 14:02:57;;;;;;;3.90;1.80;;;;;;;;;;10512765;28;20385;-76
2022/12/05 14:08:18;;;;;;;2.53;1.42;;;;;;;;;;10516450;28;20043;-75
2022/12/05 14:13:40;;;;;;;4.22;1.88;;;;;;;;;;10507352;28;20043;-75
2022/12/05 14:18:47;;;;;;;6.75;3.17;;;;;;;;;;10514742;28;20488;-74
2022/12/05 14:23:55;;;;;;;4.25;2.30;;;;;;;;;;10499798;28;20086;-74
2022/12/05 14:29:14;;;;;;;3.97;2.13;;;;;;;;;;10496603;28;20043;-75
2022/12/05 14:34:23;;;;;;;5.13;2.50;;;;;;;;;;10515901;28;20490;-75
2022/12/05 14:39:31;;;;;;;;;;;;;;;;;;10505127;28;20078;-76
2022/12/05 14:44:36;;;;;;;3.90;2.00;;;;;;;;;;10519679;28;20300;-76
2022/12/05 14:49:53;;;;;;;6.25;2.65;;;;;;;;;;10500262;28;20595;-76
2022/12/05 14:55:01;;;;;;;5.55;2.63;;;;;;;;;;10506092;28;20040;-75
2022/12/05 15:00:06;;;;;;;5.50;2.00;;;;;;;;;;10496590;28;20036;-76
2022/12/05 15:05:19;;;;;;;3.17;1.67;;;;;;;;;;10501049;28;20037;-75
2022/12/05 15:10:24;;;;;;;7.13;3.20;;;;;;;;;;10503290;28;20036;-74
2022/12/05 15:15:33;;;;;;;6.65;3.03;;;;;;;;;;10517647;28;20043;-76
2022/12/05 15:20:42;;;;;;;7.53;2.78;;;;;;;;;;10519392;28;20044;-76
2022/12/05 15:25:45;;;;;;;6.03;2.60;;;;;;;;;;10516098;28;20519;-75
2022/12/05 15:30:55;;;;;;;6.57;3.07;;;;;;;;;;10496755;28;20112;-75
2022/12/05 15:35:59;;;;;;;6.07;2.47;;;;;;;;;;10497390;28;20036;-76
2022/12/05 15:41:02;;;;;;;3.53;2.00;;;;;;;;;;10510211;28;20105;-75
2022/12/05 15:46:18;;;;;;;5.15;2.50;;;;;;;;;;10502710;28;20036;-75
2022/12/05 15:51:26;;;;;;;5.05;2.33;;;;;;;;;;10492876;28;20128;-74
2022/12/05 15:56:31;;;;;;;6.55;3.08;;;;;;;;;;10487459;28;20076;-76
2022/12/05 16:01:39;;;;;;;3.78;2.00;;;;;;;;;;10516810;28;20040;-74
2022/12/05 16:06:46;;;;;;;5.00;2.45;;;;;;;;;;10500767;28;20109;-75
2022/12/05 16:11:53;;;;;;;5.50;3.28;;;;;;;;;;10485899;28;20043;-75
2022/12/05 16:17:01;;;;;;;6.93;2.53;;;;;;;;;;10508166;28;20059;-75
2022/12/05 16:22:08;;;;;;;7.03;3.28;;;;;;;;;;10505538;28;20039;-77
2022/12/05 16:27:15;;;;;;;7.97;3.58;;;;;;;;;;10518639;28;20124;-76
2022/12/05 16:32:20;;;;;;;5.53;3.03;;;;;;;;;;10496683;28;20493;-77
2022/12/05 16:37:25;;;;;;;4.50;1.83;;;;;;;;;;10496794;28;20046;-75
2022/12/05 16:42:29;;;;;;;5.80;2.65;;;;;;;;;;10491857;28;20040;-76
2022/12/05 16:47:51;;;;;;;1.15;0.93;;;;;;;;;;10513038;28;20042;-76
2022/12/05 16:53:02;;;;;;;2.90;1.25;;;;;;;;;;10513766;28;20039;-76
2022/12/05 16:58:06;;;;;;;7.05;3.08;;;;;;;;;;10507568;28;20055;-76
2022/12/05 17:03:13;;;;;;;8.75;3.35;;;;;;;;;;10513539;28;20750;-76
2022/12/05 17:08:38;;;;;;;8.63;3.47;;;;;;;;;;10516019;28;20040;-76
2022/12/05 17:13:43;;;;;;;3.50;1.63;;;;;;;;;;10492688;28;20147;-76
2022/12/05 17:18:47;;;;;;;3.20;1.73;;;;;;;;;;10500794;28;20079;-75
2022/12/05 17:23:53;;;;;;;6.50;3.50;;;;;;;;;;10504538;28;20032;-76
2022/12/05 17:29:13;;;;;;;4.22;2.42;;;;;;;;;;10512313;28;20566;-76
2022/12/05 17:34:20;;;;;;;3.90;1.98;;;;;;;;;;10511644;28;20121;-75
2022/12/05 17:39:28;;;;;;;4.28;1.77;;;;;;;;;;10505084;28;20057;-76
2022/12/05 17:44:31;;;;;;;5.13;2.45;;;;;;;;;;10526890;28;20547;-75
2022/12/05 17:49:34;;;;;;;1.48;1.10;;;;;;;;;;10527823;28;20117;-76
2022/12/05 17:54:43;;;;;;;4.10;1.83;;;;;;;;;;10502335;28;20036;-78
2022/12/05 17:59:46;;;;;;;6.13;0.98;;;;;;;;;;10527489;28;20130;-75
2022/12/05 18:04:50;;;;;;;6.60;1.65;;;;;;;;;;10521471;28;20028;-76
2022/12/05 18:09:54;;;;;;;5.00;2.33;;;;;;;;;;10504891;28;20478;-75
2022/12/05 18:14:58;;;;;;;1.75;1.35;;;;;;;;;;10528117;28;20039;-75
2022/12/05 18:20:02;;;;;;;3.13;2.00;;;;;;;;;;10520550;28;20047;-74
2022/12/05 18:25:05;;;;;;;;;;;;;;;;;;10508910;28;20206;-75
2022/12/05 18:30:12;;;;;;;3.13;1.55;;;;;;;;;;10521154;28;20481;-75
2022/12/05 18:35:15;;;;;;;24.88;7.22;;;;;;;;;;10524869;28;20127;-75
2022/12/05 18:40:21;;;;;;;14.50;6.10;;;;;;;;;;10517377;28;20309;-75
2022/12/05 18:45:32;;;;;;;5.75;1.95;;;;;;;;;;10519718;28;20091;-75
2022/12/05 18:50:35;;;;;;;;;;;;;;;;;;10523095;28;20135;-74
2022/12/05 18:56:03;;;;;;;2.70;1.73;;;;;;;;;;10519891;28;19969;-75
2022/12/05 19:01:26;;;;;;;3.65;2.10;;;;;;;;;;10519008;28;20055;-74
2022/12/05 19:06:30;;;;;;;7.10;3.60;;;;;;;;;;10508038;28;20146;-75
2022/12/05 19:11:33;;;;;;;1.17;0.85;;;;;;;;;;10512890;28;20062;-75
2022/12/05 19:16:39;;;;;;;4.43;2.05;;;;;;;;;;10509058;28;20132;-75
2022/12/05 19:21:43;;;;;;;3.45;1.52;;;;;;;;;;10504315;28;20036;-75
2022/12/05 19:26:49;;;;;;;7.57;3.40;;;;;;;;;;10510076;28;20044;-75
2022/12/05 19:31:55;;;;;;;2.47;1.17;;;;;;;;;;10511697;28;20042;-75
2022/12/05 19:36:58;;;;;;;2.72;1.65;;;;;;;;;;10496090;28;20075;-75
2022/12/05 19:42:09;;;;;;;0.93;0.77;;;;;;;;;;10510121;28;20036;-75
2022/12/05 19:47:20;;;;;;;6.57;2.78;;;;;;;;;;10517448;28;20044;-75
2022/12/05 19:52:35;;;;;;;2.35;1.35;;;;;;;;;;10495969;28;20036;-74
2022/12/05 19:57:39;;;;;;;5.63;2.55;;;;;;;;;;10495801;28;20055;-74
2022/12/05 20:02:46;;;;;;;35.58;6.20;;;;;;;;;;10494444;28;20183;-75
2022/12/05 20:07:53;;;;;;;5.18;1.80;;;;;;;;;;10512501;28;20040;-75
2022/12/05 20:12:59;;;;;;;3.10;1.55;;;;;;;;;;10506990;28;20057;-74
2022/12/05 20:18:10;;;;;;;19.40;4.50;;;;;;;;;;10516149;28;20036;-74
2022/12/05 20:23:16;;;;;;;2.67;1.33;;;;;;;;;;10506118;28;20159;-74
2022/12/05 20:28:20;;;;;;;40.33;9.15;;;;;;;;;;10506607;28;20063;-75
2022/12/05 20:33:26;;;;;;;9.75;3.65;;;;;;;;;;10509771;28;20040;-76
2022/12/05 20:38:30;;;;;;;38.75;12.02;;;;;;;;;;10494065;28;20184;-74
2022/12/05 20:43:34;;;;;;;10.02;4.13;;;;;;;;;;10504900;28;20040;-75
2022/12/05 20:48:38;;;;;;;5.00;2.70;;;;;;;;;;10511863;28;20156;-75
2022/12/05 20:53:43;;;;;;;8.95;2.75;;;;;;;;;;10513135;28;20051;-74
2022/12/05 20:58:47;;;;;;;;;;;;;;;;;;10512226;28;20417;-75
2022/12/05 21:03:53;;;;;;;5.35;2.88;;;;;;;;;;10517373;28;19964;-75
2022/12/05 21:08:56;;;;;;;2.42;0.93;;;;;;;;;;10506273;28;20044;-76
2022/12/05 21:14:03;;;;;;;3.08;1.80;;;;;;;;;;10513055;28;20638;-75
2022/12/05 21:19:08;;;;;;;3.72;1.95;;;;;;;;;;10492126;28;20044;-74
2022/12/05 21:24:11;;;;;;;1.67;1.45;;;;;;;;;;10513960;28;20086;-75
2022/12/05 21:29:14;;;;;;;3.45;1.52;;;;;;;;;;10487243;28;20054;-77
2022/12/05 21:34:20;;;;;;;1.70;0.82;;;;;;;;;;10509671;28;20032;-75
2022/12/05 21:39:23;;;;;;;4.45;1.98;;;;;;;;;;10492761;28;20150;-76
2022/12/05 21:44:27;;;;;;;3.53;1.73;;;;;;;;;;10492906;28;20410;-77
2022/12/05 21:49:31;;;;;;;2.67;1.35;;;;;;;;;;10492710;28;20052;-75
2022/12/05 21:54:34;;;;;;;;;;;;;;;;;;10512118;28;20501;-76
2022/12/05 21:59:39;;;;;;;6.15;2.90;;;;;;;;;;10512151;28;19928;-78
2022/12/05 22:04:44;;;;;;;9.80;3.22;;;;;;;;;;10508828;28;20376;-76
2022/12/05 22:09:49;;;;;;;6.10;2.50;;;;;;;;;;10510857;28;20143;-75
2022/12/05 22:14:54;;;;;;;2.38;1.45;;;;;;;;;;10512415;28;20036;-75
2022/12/05 22:19:59;;;;;;;4.97;2.05;;;;;;;;;;10508535;28;20068;-75
2022/12/05 22:25:04;;;;;;;2.75;1.48;;;;;;;;;;10512254;28;20209;-75
2022/12/05 22:30:07;;;;;;;2.63;1.70;;;;;;;;;;10521272;28;20036;-75
2022/12/05 22:35:12;;;;;;;9.05;3.00;;;;;;;;;;10519094;28;20036;-74
2022/12/05 22:40:16;;;;;;;2.95;1.45;;;;;;;;;;10517894;28;20242;-75
2022/12/05 22:45:19;;;;;;;6.35;2.42;;;;;;;;;;10518388;28;20044;-75
2022/12/05 22:50:30;;;;;;;1.95;1.23;;;;;;;;;;10503587;28;20567;-75
2022/12/05 22:55:34;;;;;;;4.50;1.77;;;;;;;;;;10518760;28;20122;-75
2022/12/05 23:00:37;;;;;;;4.83;2.33;;;;;;;;;;10483227;28;20635;-75
2022/12/05 23:05:46;;;;;;;6.67;3.17;;;;;;;;;;10504102;28;20040;-76
2022/12/05 23:10:49;;;;;;;7.93;3.08;;;;;;;;;;10500258;28;20302;-74
2022/12/05 23:15:53;;;;;;;1.30;0.90;;;;;;;;;;10520412;28;20041;-75
2022/12/05 23:21:02;;;;;;;8.57;3.60;;;;;;;;;;10520086;28;20031;-76
2022/12/05 23:26:06;;;;;;;5.90;2.67;;;;;;;;;;10523078;28;20105;-77
2022/12/05 23:31:11;;;;;;;6.47;2.20;;;;;;;;;;10517593;28;20049;-75
2022/12/05 23:36:16;;;;;;;5.65;2.55;;;;;;;;;;10520491;28;20067;-75
2022/12/05 23:41:20;;;;;;;;;;;;;;;;;;10518642;28;20036;-76
2022/12/05 23:46:25;;;;;;;8.00;3.47;;;;;;;;;;10515805;28;19920;-76
2022/12/05 23:51:30;;;;;;;2.05;1.15;;;;;;;;;;10520505;28;20082;-77
2022/12/05 23:56:33;;;;;;;9.52;4.20;;;;;;;;;;10516036;28;20032;-75
